sensor_id;sensor_type;location;lat;lon;timestamp;temperature;humidity
70170;DHT22;57543;45.442;9.212;2023-04-24T00:02:44;15.50;80.14
70170;DHT22;57543;45.442;9.212;2023-04-24T00:05:50;15.60;79.17
70170;DHT22;57543;45.442;9.212;2023-04-24T00:08:54;15.97;77.65
70170;DHT22;57543;45.442;9.212;2023-04-24T00:11:58;15.93;78.63
70170;DHT22;57543;45.442;9.212;2023-04-24T00:15:02;16.05;78.42
70170;DHT22;57543;45.442;9.212;2023-04-24T00:18:06;16.29;76.96
70170;DHT22;57543;45.442;9.212;2023-04-24T00:21:13;16.56;75.07
70170;DHT22;57543;45.442;9.212;2023-04-24T00:24:18;16.85;73.82
70170;DHT22;57543;45.442;9.212;2023-04-24T00:27:22;16.62;75.30
70170;DHT22;57543;45.442;9.212;2023-04-24T00:30:26;16.35;77.65
70170;DHT22;57543;45.442;9.212;2023-04-24T00:33:29;16.55;76.24
70170;DHT22;57543;45.442;9.212;2023-04-24T00:36:36;16.53;75.57
70170;DHT22;57543;45.442;9.212;2023-04-24T00:39:40;16.33;76.60
70170;DHT22;57543;45.442;9.212;2023-04-24T00:42:43;16.57;75.10
70170;DHT22;57543;45.442;9.212;2023-04-24T00:45:48;16.84;74.04
70170;DHT22;57543;45.442;9.212;2023-04-24T00:48:52;16.93;73.55
70170;DHT22;57543;45.442;9.212;2023-04-24T00:51:56;17.04;73.54
70170;DHT22;57543;45.442;9.212;2023-04-24T00:55:00;16.69;74.94
70170;DHT22;57543;45.442;9.212;2023-04-24T00:58:04;16.52;75.30
70170;DHT22;57543;45.442;9.212;2023-04-24T01:01:08;16.44;75.52
70170;DHT22;57543;45.442;9.212;2023-04-24T01:04:12;16.66;74.02
70170;DHT22;57543;45.442;9.212;2023-04-24T01:07:19;16.60;74.66
70170;DHT22;57543;45.442;9.212;2023-04-24T01:10:24;16.81;73.84
70170;DHT22;57543;45.442;9.212;2023-04-24T01:13:31;16.26;75.81
70170;DHT22;57543;45.442;9.212;2023-04-24T01:16:35;16.36;75.53
70170;DHT22;57543;45.442;9.212;2023-04-24T01:19:39;16.59;74.90
70170;DHT22;57543;45.442;9.212;2023-04-24T01:22:43;16.44;75.01
70170;DHT22;57543;45.442;9.212;2023-04-24T01:25:48;16.53;75.39
70170;DHT22;57543;45.442;9.212;2023-04-24T01:28:52;16.52;75.64
70170;DHT22;57543;45.442;9.212;2023-04-24T01:31:56;16.77;74.68
70170;DHT22;57543;45.442;9.212;2023-04-24T01:35:06;16.70;74.39
70170;DHT22;57543;45.442;9.212;2023-04-24T01:38:10;16.85;74.19
70170;DHT22;57543;45.442;9.212;2023-04-24T01:41:16;16.87;74.23
70170;DHT22;57543;45.442;9.212;2023-04-24T01:44:22;17.07;73.89
70170;DHT22;57543;45.442;9.212;2023-04-24T01:47:27;17.10;73.67
70170;DHT22;57543;45.442;9.212;2023-04-24T01:50:30;17.18;73.53
70170;DHT22;57543;45.442;9.212;2023-04-24T01:53:35;17.24;73.52
70170;DHT22;57543;45.442;9.212;2023-04-24T01:56:43;17.29;73.41
70170;DHT22;57543;45.442;9.212;2023-04-24T01:59:47;17.34;73.01
70170;DHT22;57543;45.442;9.212;2023-04-24T02:02:52;17.36;72.60
70170;DHT22;57543;45.442;9.212;2023-04-24T02:05:56;17.19;72.90
70170;DHT22;57543;45.442;9.212;2023-04-24T02:09:02;17.27;73.14
70170;DHT22;57543;45.442;9.212;2023-04-24T02:12:06;17.27;73.27
70170;DHT22;57543;45.442;9.212;2023-04-24T02:15:10;17.40;73.08
70170;DHT22;57543;45.442;9.212;2023-04-24T02:18:14;17.45;72.96
70170;DHT22;57543;45.442;9.212;2023-04-24T02:21:19;17.11;73.80
70170;DHT22;57543;45.442;9.212;2023-04-24T02:24:22;16.94;75.27
70170;DHT22;57543;45.442;9.212;2023-04-24T02:27:26;16.79;75.16
70170;DHT22;57543;45.442;9.212;2023-04-24T02:30:29;16.63;75.66
70170;DHT22;57543;45.442;9.212;2023-04-24T02:33:33;16.74;75.95
70170;DHT22;57543;45.442;9.212;2023-04-24T02:36:37;16.85;75.57
70170;DHT22;57543;45.442;9.212;2023-04-24T02:39:40;17.01;74.62
70170;DHT22;57543;45.442;9.212;2023-04-24T02:42:44;17.11;74.24
70170;DHT22;57543;45.442;9.212;2023-04-24T02:45:47;17.01;74.22
70170;DHT22;57543;45.442;9.212;2023-04-24T02:48:52;16.87;75.08
70170;DHT22;57543;45.442;9.212;2023-04-24T02:51:55;16.69;75.39
70170;DHT22;57543;45.442;9.212;2023-04-24T02:55:03;16.51;76.46
70170;DHT22;57543;45.442;9.212;2023-04-24T02:58:07;16.46;76.43
70170;DHT22;57543;45.442;9.212;2023-04-24T03:01:10;16.42;77.11
70170;DHT22;57543;45.442;9.212;2023-04-24T03:04:14;16.45;76.66
70170;DHT22;57543;45.442;9.212;2023-04-24T03:07:18;16.63;75.74
70170;DHT22;57543;45.442;9.212;2023-04-24T03:10:24;16.70;75.26
70170;DHT22;57543;45.442;9.212;2023-04-24T03:13:28;16.91;74.75
70170;DHT22;57543;45.442;9.212;2023-04-24T03:16:31;16.83;74.60
70170;DHT22;57543;45.442;9.212;2023-04-24T03:19:36;16.79;74.36
70170;DHT22;57543;45.442;9.212;2023-04-24T03:22:45;16.70;74.15
70170;DHT22;57543;45.442;9.212;2023-04-24T03:25:49;16.36;75.84
70170;DHT22;57543;45.442;9.212;2023-04-24T03:28:53;16.24;76.70
70170;DHT22;57543;45.442;9.212;2023-04-24T03:32:00;16.26;76.74
70170;DHT22;57543;45.442;9.212;2023-04-24T03:35:05;16.11;77.30
70170;DHT22;57543;45.442;9.212;2023-04-24T03:38:09;16.05;77.84
70170;DHT22;57543;45.442;9.212;2023-04-24T03:41:19;15.59;77.83
70170;DHT22;57543;45.442;9.212;2023-04-24T03:44:27;16.00;77.10
70170;DHT22;57543;45.442;9.212;2023-04-24T03:47:30;16.33;76.01
70170;DHT22;57543;45.442;9.212;2023-04-24T03:50:37;16.33;75.09
70170;DHT22;57543;45.442;9.212;2023-04-24T03:53:41;16.32;75.05
70170;DHT22;57543;45.442;9.212;2023-04-24T03:56:46;16.32;74.87
70170;DHT22;57543;45.442;9.212;2023-04-24T03:59:50;16.10;75.22
70170;DHT22;57543;45.442;9.212;2023-04-24T04:02:56;15.67;75.83
70170;DHT22;57543;45.442;9.212;2023-04-24T04:05:59;15.79;75.37
70170;DHT22;57543;45.442;9.212;2023-04-24T04:09:03;15.63;75.19
70170;DHT22;57543;45.442;9.212;2023-04-24T04:12:07;15.65;75.40
70170;DHT22;57543;45.442;9.212;2023-04-24T04:15:12;15.93;75.30
70170;DHT22;57543;45.442;9.212;2023-04-24T04:18:16;16.01;75.22
70170;DHT22;57543;45.442;9.212;2023-04-24T04:21:19;15.82;76.34
70170;DHT22;57543;45.442;9.212;2023-04-24T04:24:25;15.80;76.45
70170;DHT22;57543;45.442;9.212;2023-04-24T04:27:30;15.70;76.78
70170;DHT22;57543;45.442;9.212;2023-04-24T04:30:39;15.69;76.80
70170;DHT22;57543;45.442;9.212;2023-04-24T04:33:43;15.83;76.58
70170;DHT22;57543;45.442;9.212;2023-04-24T04:36:47;15.77;77.01
70170;DHT22;57543;45.442;9.212;2023-04-24T04:40:15;15.58;77.85
70170;DHT22;57543;45.442;9.212;2023-04-24T04:43:31;15.67;77.55
70170;DHT22;57543;45.442;9.212;2023-04-24T04:46:36;15.93;76.70
70170;DHT22;57543;45.442;9.212;2023-04-24T04:49:57;15.96;76.30
70170;DHT22;57543;45.442;9.212;2023-04-24T04:53:04;15.67;77.52
70170;DHT22;57543;45.442;9.212;2023-04-24T04:56:11;15.59;77.93
70170;DHT22;57543;45.442;9.212;2023-04-24T04:59:22;15.53;78.12
70170;DHT22;57543;45.442;9.212;2023-04-24T05:02:30;15.53;78.55
70170;DHT22;57543;45.442;9.212;2023-04-24T05:05:34;15.48;78.83
70170;DHT22;57543;45.442;9.212;2023-04-24T05:08:38;15.50;78.72
70170;DHT22;57543;45.442;9.212;2023-04-24T05:11:45;15.53;78.59
70170;DHT22;57543;45.442;9.212;2023-04-24T05:14:49;15.53;78.32
70170;DHT22;57543;45.442;9.212;2023-04-24T05:17:53;15.42;77.77
70170;DHT22;57543;45.442;9.212;2023-04-24T05:20:56;15.27;78.26
70170;DHT22;57543;45.442;9.212;2023-04-24T05:24:01;15.34;77.74
70170;DHT22;57543;45.442;9.212;2023-04-24T05:27:20;15.22;77.94
70170;DHT22;57543;45.442;9.212;2023-04-24T05:30:25;15.50;76.71
70170;DHT22;57543;45.442;9.212;2023-04-24T05:33:29;15.55;76.11
70170;DHT22;57543;45.442;9.212;2023-04-24T05:36:33;15.80;75.63
70170;DHT22;57543;45.442;9.212;2023-04-24T05:39:37;15.67;75.79
70170;DHT22;57543;45.442;9.212;2023-04-24T05:42:41;15.76;75.22
70170;DHT22;57543;45.442;9.212;2023-04-24T05:45:44;15.63;75.79
70170;DHT22;57543;45.442;9.212;2023-04-24T05:48:47;15.66;75.70
70170;DHT22;57543;45.442;9.212;2023-04-24T05:51:51;15.58;75.94
70170;DHT22;57543;45.442;9.212;2023-04-24T05:54:55;15.60;76.97
70170;DHT22;57543;45.442;9.212;2023-04-24T05:58:02;15.74;76.01
70170;DHT22;57543;45.442;9.212;2023-04-24T06:01:06;15.71;76.03
70170;DHT22;57543;45.442;9.212;2023-04-24T06:04:12;15.77;76.51
70170;DHT22;57543;45.442;9.212;2023-04-24T06:07:17;15.94;75.56
70170;DHT22;57543;45.442;9.212;2023-04-24T06:10:21;16.14;74.34
70170;DHT22;57543;45.442;9.212;2023-04-24T06:13:25;16.31;73.16
70170;DHT22;57543;45.442;9.212;2023-04-24T06:16:52;16.25;72.50
70170;DHT22;57543;45.442;9.212;2023-04-24T06:20:07;16.36;71.06
70170;DHT22;57543;45.442;9.212;2023-04-24T06:23:11;16.38;71.27
70170;DHT22;57543;45.442;9.212;2023-04-24T06:26:18;16.48;71.18
70170;DHT22;57543;45.442;9.212;2023-04-24T06:29:22;16.62;70.64
70170;DHT22;57543;45.442;9.212;2023-04-24T06:32:27;16.67;70.07
70170;DHT22;57543;45.442;9.212;2023-04-24T06:35:31;16.66;69.53
70170;DHT22;57543;45.442;9.212;2023-04-24T06:38:34;16.69;69.18
70170;DHT22;57543;45.442;9.212;2023-04-24T06:41:38;16.53;69.66
70170;DHT22;57543;45.442;9.212;2023-04-24T06:44:45;16.66;69.84
70170;DHT22;57543;45.442;9.212;2023-04-24T06:47:50;16.80;68.81
70170;DHT22;57543;45.442;9.212;2023-04-24T06:50:54;16.91;68.68
70170;DHT22;57543;45.442;9.212;2023-04-24T06:53:58;16.90;67.93
70170;DHT22;57543;45.442;9.212;2023-04-24T06:57:01;17.04;68.16
70170;DHT22;57543;45.442;9.212;2023-04-24T07:00:07;17.22;68.21
70170;DHT22;57543;45.442;9.212;2023-04-24T07:03:12;17.31;68.32
70170;DHT22;57543;45.442;9.212;2023-04-24T07:06:15;17.28;67.66
70170;DHT22;57543;45.442;9.212;2023-04-24T07:09:22;17.43;67.72
70170;DHT22;57543;45.442;9.212;2023-04-24T07:12:27;17.10;65.96
70170;DHT22;57543;45.442;9.212;2023-04-24T07:15:30;17.14;67.32
70170;DHT22;57543;45.442;9.212;2023-04-24T07:18:35;17.19;66.09
70170;DHT22;57543;45.442;9.212;2023-04-24T07:21:40;16.97;65.75
70170;DHT22;57543;45.442;9.212;2023-04-24T07:24:44;17.27;66.81
70170;DHT22;57543;45.442;9.212;2023-04-24T07:27:47;17.11;66.77
70170;DHT22;57543;45.442;9.212;2023-04-24T07:30:52;16.87;67.54
70170;DHT22;57543;45.442;9.212;2023-04-24T07:33:57;16.84;68.24
70170;DHT22;57543;45.442;9.212;2023-04-24T07:37:04;16.94;67.97
70170;DHT22;57543;45.442;9.212;2023-04-24T07:40:08;17.22;67.60
70170;DHT22;57543;45.442;9.212;2023-04-24T07:43:11;17.28;66.43
70170;DHT22;57543;45.442;9.212;2023-04-24T07:46:15;17.52;66.40
70170;DHT22;57543;45.442;9.212;2023-04-24T07:49:19;17.72;65.39
70170;DHT22;57543;45.442;9.212;2023-04-24T07:52:23;17.67;65.67
70170;DHT22;57543;45.442;9.212;2023-04-24T07:55:27;17.56;64.94
70170;DHT22;57543;45.442;9.212;2023-04-24T07:58:30;17.80;65.11
70170;DHT22;57543;45.442;9.212;2023-04-24T08:01:34;17.77;63.71
70170;DHT22;57543;45.442;9.212;2023-04-24T08:04:38;17.89;64.41
70170;DHT22;57543;45.442;9.212;2023-04-24T08:07:42;18.05;64.78
70170;DHT22;57543;45.442;9.212;2023-04-24T08:10:45;18.31;63.80
70170;DHT22;57543;45.442;9.212;2023-04-24T08:13:49;18.45;62.61
70170;DHT22;57543;45.442;9.212;2023-04-24T08:16:54;18.62;62.77
70170;DHT22;57543;45.442;9.212;2023-04-24T08:19:59;18.84;63.05
70170;DHT22;57543;45.442;9.212;2023-04-24T08:23:04;18.90;62.88
70170;DHT22;57543;45.442;9.212;2023-04-24T08:26:08;19.22;61.46
70170;DHT22;57543;45.442;9.212;2023-04-24T08:29:12;19.42;60.79
70170;DHT22;57543;45.442;9.212;2023-04-24T08:32:16;19.66;60.49
70170;DHT22;57543;45.442;9.212;2023-04-24T08:35:20;19.79;59.86
70170;DHT22;57543;45.442;9.212;2023-04-24T08:38:24;19.96;58.77
70170;DHT22;57543;45.442;9.212;2023-04-24T08:41:29;20.08;57.78
70170;DHT22;57543;45.442;9.212;2023-04-24T08:44:35;19.98;59.13
70170;DHT22;57543;45.442;9.212;2023-04-24T08:47:40;20.26;56.38
70170;DHT22;57543;45.442;9.212;2023-04-24T08:50:44;20.49;56.98
70170;DHT22;57543;45.442;9.212;2023-04-24T08:53:48;20.55;54.49
70170;DHT22;57543;45.442;9.212;2023-04-24T08:56:53;20.72;53.79
70170;DHT22;57543;45.442;9.212;2023-04-24T08:59:57;20.87;53.50
70170;DHT22;57543;45.442;9.212;2023-04-24T09:03:01;20.88;52.77
70170;DHT22;57543;45.442;9.212;2023-04-24T09:06:08;21.05;51.84
70170;DHT22;57543;45.442;9.212;2023-04-24T09:09:12;21.12;51.73
70170;DHT22;57543;45.442;9.212;2023-04-24T09:12:17;21.10;53.23
70170;DHT22;57543;45.442;9.212;2023-04-24T09:15:21;21.28;52.08
70170;DHT22;57543;45.442;9.212;2023-04-24T09:18:25;21.39;51.04
70170;DHT22;57543;45.442;9.212;2023-04-24T09:21:33;21.42;50.21
70170;DHT22;57543;45.442;9.212;2023-04-24T09:24:38;21.52;51.70
70170;DHT22;57543;45.442;9.212;2023-04-24T09:27:45;21.79;50.58
70170;DHT22;57543;45.442;9.212;2023-04-24T09:31:06;21.96;49.86
70170;DHT22;57543;45.442;9.212;2023-04-24T09:34:11;21.91;51.17
70170;DHT22;57543;45.442;9.212;2023-04-24T09:37:28;22.02;50.30
70170;DHT22;57543;45.442;9.212;2023-04-24T09:40:34;22.12;49.50
70170;DHT22;57543;45.442;9.212;2023-04-24T09:43:41;21.73;50.64
70170;DHT22;57543;45.442;9.212;2023-04-24T09:46:49;21.87;50.08
70170;DHT22;57543;45.442;9.212;2023-04-24T09:49:57;22.01;50.42
70170;DHT22;57543;45.442;9.212;2023-04-24T09:53:02;22.07;50.80
70170;DHT22;57543;45.442;9.212;2023-04-24T09:56:08;22.10;50.63
70170;DHT22;57543;45.442;9.212;2023-04-24T09:59:13;22.15;50.69
70170;DHT22;57543;45.442;9.212;2023-04-24T10:02:19;22.34;50.24
70170;DHT22;57543;45.442;9.212;2023-04-24T10:05:32;22.44;50.08
70170;DHT22;57543;45.442;9.212;2023-04-24T10:08:36;22.51;48.91
70170;DHT22;57543;45.442;9.212;2023-04-24T10:11:46;22.41;49.27
70170;DHT22;57543;45.442;9.212;2023-04-24T10:14:50;22.38;50.32
70170;DHT22;57543;45.442;9.212;2023-04-24T10:17:54;22.12;49.64
70170;DHT22;57543;45.442;9.212;2023-04-24T10:20:59;22.18;48.86
70170;DHT22;57543;45.442;9.212;2023-04-24T10:24:04;22.32;49.20
70170;DHT22;57543;45.442;9.212;2023-04-24T10:27:09;22.39;47.60
70170;DHT22;57543;45.442;9.212;2023-04-24T10:30:13;22.38;47.70
70170;DHT22;57543;45.442;9.212;2023-04-24T10:33:17;22.55;46.19
70170;DHT22;57543;45.442;9.212;2023-04-24T10:36:22;22.62;46.21
70170;DHT22;57543;45.442;9.212;2023-04-24T10:39:29;22.79;46.03
70170;DHT22;57543;45.442;9.212;2023-04-24T10:42:34;22.69;45.20
70170;DHT22;57543;45.442;9.212;2023-04-24T10:45:38;22.49;47.72
70170;DHT22;57543;45.442;9.212;2023-04-24T10:48:43;22.84;46.28
70170;DHT22;57543;45.442;9.212;2023-04-24T10:51:52;22.98;45.99
70170;DHT22;57543;45.442;9.212;2023-04-24T10:55:01;22.89;46.90
70170;DHT22;57543;45.442;9.212;2023-04-24T10:58:04;23.01;47.18
70170;DHT22;57543;45.442;9.212;2023-04-24T11:01:08;23.28;46.49
70170;DHT22;57543;45.442;9.212;2023-04-24T11:04:12;23.45;44.65
70170;DHT22;57543;45.442;9.212;2023-04-24T11:07:16;23.56;44.44
70170;DHT22;57543;45.442;9.212;2023-04-24T11:10:26;23.65;46.30
70170;DHT22;57543;45.442;9.212;2023-04-24T11:16:58;23.69;44.26
70170;DHT22;57543;45.442;9.212;2023-04-24T11:20:05;23.86;43.81
70170;DHT22;57543;45.442;9.212;2023-04-24T11:23:12;23.97;46.95
70170;DHT22;57543;45.442;9.212;2023-04-24T11:26:21;24.18;45.81
70170;DHT22;57543;45.442;9.212;2023-04-24T11:32:51;24.39;42.70
70170;DHT22;57543;45.442;9.212;2023-04-24T11:35:54;24.49;42.27
70170;DHT22;57543;45.442;9.212;2023-04-24T11:38:58;24.60;41.47
70170;DHT22;57543;45.442;9.212;2023-04-24T11:42:03;24.62;41.63
70170;DHT22;57543;45.442;9.212;2023-04-24T11:45:08;24.72;41.02
70170;DHT22;57543;45.442;9.212;2023-04-24T11:48:12;24.79;39.90
70170;DHT22;57543;45.442;9.212;2023-04-24T11:51:16;24.87;40.40
70170;DHT22;57543;45.442;9.212;2023-04-24T11:54:20;24.98;42.22
70170;DHT22;57543;45.442;9.212;2023-04-24T11:57:25;25.01;41.67
70170;DHT22;57543;45.442;9.212;2023-04-24T12:00:32;25.08;43.09
70170;DHT22;57543;45.442;9.212;2023-04-24T12:03:37;25.14;41.06
70170;DHT22;57543;45.442;9.212;2023-04-24T12:06:58;25.04;41.64
70170;DHT22;57543;45.442;9.212;2023-04-24T12:10:02;25.07;41.41
70170;DHT22;57543;45.442;9.212;2023-04-24T12:13:09;25.04;40.56
70170;DHT22;57543;45.442;9.212;2023-04-24T12:16:13;24.94;42.19
70170;DHT22;57543;45.442;9.212;2023-04-24T12:19:23;25.04;41.37
70170;DHT22;57543;45.442;9.212;2023-04-24T12:22:42;25.15;40.52
70170;DHT22;57543;45.442;9.212;2023-04-24T12:25:45;25.22;39.89
70170;DHT22;57543;45.442;9.212;2023-04-24T12:28:49;25.31;40.62
70170;DHT22;57543;45.442;9.212;2023-04-24T12:31:53;25.35;40.25
70170;DHT22;57543;45.442;9.212;2023-04-24T12:34:57;25.39;39.55
70170;DHT22;57543;45.442;9.212;2023-04-24T12:38:29;25.37;40.76
70170;DHT22;57543;45.442;9.212;2023-04-24T12:41:33;25.35;39.84
70170;DHT22;57543;45.442;9.212;2023-04-24T12:44:36;25.45;39.73
70170;DHT22;57543;45.442;9.212;2023-04-24T12:47:42;25.56;36.80
70170;DHT22;57543;45.442;9.212;2023-04-24T12:50:45;25.61;35.94
70170;DHT22;57543;45.442;9.212;2023-04-24T12:53:52;25.58;36.59
70170;DHT22;57543;45.442;9.212;2023-04-24T12:56:55;25.56;37.06
70170;DHT22;57543;45.442;9.212;2023-04-24T13:00:00;25.52;36.11
70170;DHT22;57543;45.442;9.212;2023-04-24T13:03:04;25.63;34.75
70170;DHT22;57543;45.442;9.212;2023-04-24T13:06:08;25.63;34.05
70170;DHT22;57543;45.442;9.212;2023-04-24T13:09:11;25.65;34.47
70170;DHT22;57543;45.442;9.212;2023-04-24T13:12:15;25.76;35.24
70170;DHT22;57543;45.442;9.212;2023-04-24T13:15:19;25.80;34.09
70170;DHT22;57543;45.442;9.212;2023-04-24T13:18:23;25.76;34.17
70170;DHT22;57543;45.442;9.212;2023-04-24T13:21:27;25.77;34.70
70170;DHT22;57543;45.442;9.212;2023-04-24T13:24:32;25.89;34.09
70170;DHT22;57543;45.442;9.212;2023-04-24T13:27:37;25.89;33.18
70170;DHT22;57543;45.442;9.212;2023-04-24T13:30:40;25.89;32.32
70170;DHT22;57543;45.442;9.212;2023-04-24T13:33:47;25.61;32.99
70170;DHT22;57543;45.442;9.212;2023-04-24T13:36:55;25.65;33.82
70170;DHT22;57543;45.442;9.212;2023-04-24T13:39:59;25.86;34.30
70170;DHT22;57543;45.442;9.212;2023-04-24T13:43:02;25.96;33.99
70170;DHT22;57543;45.442;9.212;2023-04-24T13:46:06;25.83;32.40
70170;DHT22;57543;45.442;9.212;2023-04-24T13:49:10;25.94;31.29
70170;DHT22;57543;45.442;9.212;2023-04-24T13:52:14;26.03;30.59
70170;DHT22;57543;45.442;9.212;2023-04-24T13:55:17;25.92;29.70
70170;DHT22;57543;45.442;9.212;2023-04-24T13:58:24;26.01;28.86
70170;DHT22;57543;45.442;9.212;2023-04-24T14:01:28;26.07;30.13
70170;DHT22;57543;45.442;9.212;2023-04-24T14:04:31;26.21;29.14
70170;DHT22;57543;45.442;9.212;2023-04-24T14:07:35;26.11;25.99
70170;DHT22;57543;45.442;9.212;2023-04-24T14:10:38;25.92;27.66
70170;DHT22;57543;45.442;9.212;2023-04-24T14:13:42;25.96;28.40
70170;DHT22;57543;45.442;9.212;2023-04-24T14:16:48;25.94;27.26
70170;DHT22;57543;45.442;9.212;2023-04-24T14:19:52;25.83;25.36
70170;DHT22;57543;45.442;9.212;2023-04-24T14:23:01;26.00;24.87
70170;DHT22;57543;45.442;9.212;2023-04-24T14:26:06;25.86;22.86
70170;DHT22;57543;45.442;9.212;2023-04-24T14:29:10;25.80;25.63
70170;DHT22;57543;45.442;9.212;2023-04-24T14:32:13;25.84;26.98
70170;DHT22;57543;45.442;9.212;2023-04-24T14:35:19;25.80;27.91
70170;DHT22;57543;45.442;9.212;2023-04-24T14:38:23;25.79;28.09
70170;DHT22;57543;45.442;9.212;2023-04-24T14:41:26;25.84;29.27
70170;DHT22;57543;45.442;9.212;2023-04-24T14:44:30;25.90;27.49
70170;DHT22;57543;45.442;9.212;2023-04-24T14:47:36;25.89;27.03
70170;DHT22;57543;45.442;9.212;2023-04-24T14:50:40;25.73;27.72
70170;DHT22;57543;45.442;9.212;2023-04-24T14:53:43;25.82;27.54
70170;DHT22;57543;45.442;9.212;2023-04-24T14:56:46;25.63;29.44
70170;DHT22;57543;45.442;9.212;2023-04-24T14:59:53;25.79;29.11
70170;DHT22;57543;45.442;9.212;2023-04-24T15:02:56;25.67;27.53
70170;DHT22;57543;45.442;9.212;2023-04-24T15:06:00;25.58;27.60
70170;DHT22;57543;45.442;9.212;2023-04-24T15:09:04;25.58;27.73
70170;DHT22;57543;45.442;9.212;2023-04-24T15:12:08;25.59;26.61
70170;DHT22;57543;45.442;9.212;2023-04-24T15:15:11;25.69;26.32
70170;DHT22;57543;45.442;9.212;2023-04-24T15:18:14;25.75;25.86
70170;DHT22;57543;45.442;9.212;2023-04-24T15:21:18;25.76;26.64
70170;DHT22;57543;45.442;9.212;2023-04-24T15:24:21;25.67;27.39
70170;DHT22;57543;45.442;9.212;2023-04-24T15:27:27;25.61;26.36
70170;DHT22;57543;45.442;9.212;2023-04-24T15:30:31;25.58;26.83
70170;DHT22;57543;45.442;9.212;2023-04-24T15:33:34;25.56;26.77
70170;DHT22;57543;45.442;9.212;2023-04-24T15:36:38;25.31;27.32
70170;DHT22;57543;45.442;9.212;2023-04-24T15:39:44;25.04;26.44
70170;DHT22;57543;45.442;9.212;2023-04-24T15:42:47;24.84;26.59
70170;DHT22;57543;45.442;9.212;2023-04-24T15:45:53;24.98;27.42
70170;DHT22;57543;45.442;9.212;2023-04-24T15:48:58;24.73;27.64
70170;DHT22;57543;45.442;9.212;2023-04-24T15:52:02;24.72;28.43
70170;DHT22;57543;45.442;9.212;2023-04-24T15:55:06;24.51;29.59
70170;DHT22;57543;45.442;9.212;2023-04-24T15:58:10;24.53;28.19
70170;DHT22;57543;45.442;9.212;2023-04-24T16:01:13;24.49;28.94
70170;DHT22;57543;45.442;9.212;2023-04-24T16:04:17;24.33;28.26
70170;DHT22;57543;45.442;9.212;2023-04-24T16:07:21;24.24;26.77
70170;DHT22;57543;45.442;9.212;2023-04-24T16:10:25;24.14;27.58
70170;DHT22;57543;45.442;9.212;2023-04-24T16:13:30;24.00;27.52
70170;DHT22;57543;45.442;9.212;2023-04-24T16:16:34;23.88;26.93
70170;DHT22;57543;45.442;9.212;2023-04-24T16:19:38;23.92;26.73
70170;DHT22;57543;45.442;9.212;2023-04-24T16:22:41;23.92;27.11
70170;DHT22;57543;45.442;9.212;2023-04-24T16:25:45;23.88;28.15
70170;DHT22;57543;45.442;9.212;2023-04-24T16:28:48;23.73;29.11
70170;DHT22;57543;45.442;9.212;2023-04-24T16:31:52;23.76;29.66
70170;DHT22;57543;45.442;9.212;2023-04-24T16:34:55;23.84;28.40
70170;DHT22;57543;45.442;9.212;2023-04-24T16:37:59;23.88;26.91
70170;DHT22;57543;45.442;9.212;2023-04-24T16:41:02;23.77;26.48
70170;DHT22;57543;45.442;9.212;2023-04-24T16:44:06;23.76;27.40
70170;DHT22;57543;45.442;9.212;2023-04-24T16:47:10;23.67;27.07
70170;DHT22;57543;45.442;9.212;2023-04-24T16:50:16;23.55;27.03
70170;DHT22;57543;45.442;9.212;2023-04-24T16:53:19;23.56;27.17
70170;DHT22;57543;45.442;9.212;2023-04-24T16:56:23;23.49;27.24
70170;DHT22;57543;45.442;9.212;2023-04-24T16:59:28;23.45;27.81
70170;DHT22;57543;45.442;9.212;2023-04-24T17:02:33;23.49;27.92
70170;DHT22;57543;45.442;9.212;2023-04-24T17:05:39;23.42;29.38
70170;DHT22;57543;45.442;9.212;2023-04-24T17:08:42;23.19;30.11
70170;DHT22;57543;45.442;9.212;2023-04-24T17:11:46;23.15;29.76
70170;DHT22;57543;45.442;9.212;2023-04-24T17:14:49;23.18;29.15
70170;DHT22;57543;45.442;9.212;2023-04-24T17:17:53;23.17;29.38
70170;DHT22;57543;45.442;9.212;2023-04-24T17:20:57;23.15;28.83
70170;DHT22;57543;45.442;9.212;2023-04-24T17:24:00;23.17;29.08
70170;DHT22;57543;45.442;9.212;2023-04-24T17:27:06;23.14;30.47
70170;DHT22;57543;45.442;9.212;2023-04-24T17:30:10;23.00;30.58
70170;DHT22;57543;45.442;9.212;2023-04-24T17:33:14;22.81;29.93
70170;DHT22;57543;45.442;9.212;2023-04-24T17:36:18;22.87;29.90
70170;DHT22;57543;45.442;9.212;2023-04-24T17:39:22;22.91;29.12
70170;DHT22;57543;45.442;9.212;2023-04-24T17:42:25;22.86;29.80
70170;DHT22;57543;45.442;9.212;2023-04-24T17:45:29;22.73;30.35
70170;DHT22;57543;45.442;9.212;2023-04-24T17:48:33;22.76;30.93
70170;DHT22;57543;45.442;9.212;2023-04-24T17:51:37;22.64;30.15
70170;DHT22;57543;45.442;9.212;2023-04-24T17:54:40;22.60;30.54
70170;DHT22;57543;45.442;9.212;2023-04-24T17:57:44;22.52;30.21
70170;DHT22;57543;45.442;9.212;2023-04-24T18:00:48;22.41;30.76
70170;DHT22;57543;45.442;9.212;2023-04-24T18:03:52;22.41;31.37
70170;DHT22;57543;45.442;9.212;2023-04-24T18:06:58;22.32;30.74
70170;DHT22;57543;45.442;9.212;2023-04-24T18:10:01;22.11;32.42
70170;DHT22;57543;45.442;9.212;2023-04-24T18:13:05;22.11;32.98
70170;DHT22;57543;45.442;9.212;2023-04-24T18:16:09;22.10;32.90
70170;DHT22;57543;45.442;9.212;2023-04-24T18:19:12;22.11;33.43
70170;DHT22;57543;45.442;9.212;2023-04-24T18:22:16;22.07;33.48
70170;DHT22;57543;45.442;9.212;2023-04-24T18:25:20;22.01;32.54
70170;DHT22;57543;45.442;9.212;2023-04-24T18:28:29;22.05;33.07
70170;DHT22;57543;45.442;9.212;2023-04-24T18:31:33;21.98;33.19
70170;DHT22;57543;45.442;9.212;2023-04-24T18:34:36;21.91;32.75
70170;DHT22;57543;45.442;9.212;2023-04-24T18:37:40;21.84;33.30
70170;DHT22;57543;45.442;9.212;2023-04-24T18:40:43;21.76;33.05
70170;DHT22;57543;45.442;9.212;2023-04-24T18:43:47;21.67;33.45
70170;DHT22;57543;45.442;9.212;2023-04-24T18:46:51;21.62;33.90
70170;DHT22;57543;45.442;9.212;2023-04-24T18:49:55;21.65;34.24
70170;DHT22;57543;45.442;9.212;2023-04-24T18:52:59;21.55;34.11
70170;DHT22;57543;45.442;9.212;2023-04-24T18:56:05;21.43;34.19
70170;DHT22;57543;45.442;9.212;2023-04-24T18:59:09;21.38;33.67
70170;DHT22;57543;45.442;9.212;2023-04-24T19:02:13;21.38;34.42
70170;DHT22;57543;45.442;9.212;2023-04-24T19:05:16;21.37;35.18
70170;DHT22;57543;45.442;9.212;2023-04-24T19:08:23;21.32;35.71
70170;DHT22;57543;45.442;9.212;2023-04-24T19:11:29;21.32;36.01
70170;DHT22;57543;45.442;9.212;2023-04-24T19:14:33;21.27;36.74
70170;DHT22;57543;45.442;9.212;2023-04-24T19:17:39;21.21;36.78
70170;DHT22;57543;45.442;9.212;2023-04-24T19:20:42;21.31;37.01
70170;DHT22;57543;45.442;9.212;2023-04-24T19:23:46;21.28;37.31
70170;DHT22;57543;45.442;9.212;2023-04-24T19:26:52;21.31;37.48
70170;DHT22;57543;45.442;9.212;2023-04-24T19:29:55;21.38;38.33
70170;DHT22;57543;45.442;9.212;2023-04-24T19:32:59;21.31;38.73
70170;DHT22;57543;45.442;9.212;2023-04-24T19:36:03;21.07;39.52